createdAt,value
2016-11-03T11:08:44.114Z,959.84
2016-11-03T11:09:16.233Z,959.86
2016-11-03T11:10:16.081Z,959.85
2016-11-03T11:11:14.554Z,959.80
2016-11-03T11:12:14.144Z,959.82
2016-11-03T11:13:11.111Z,959.76
2016-11-03T11:14:14.698Z,959.71
2016-11-03T11:15:15.599Z,959.75
2016-11-03T11:16:14.185Z,959.72
2016-11-03T11:17:14.159Z,959.70
2016-11-03T11:18:13.887Z,959.69
2016-11-03T11:19:13.861Z,959.67
2016-11-03T11:20:12.010Z,959.68
2016-11-03T11:21:14.061Z,959.66
2016-11-03T11:22:13.910Z,959.63
2016-11-03T11:23:14.040Z,959.61
2016-11-03T11:24:14.052Z,959.63
2016-11-03T11:25:14.723Z,959.62
2016-11-03T11:26:15.068Z,959.59
2016-11-03T11:27:14.053Z,959.58
2016-11-03T11:28:14.304Z,959.58
2016-11-03T11:29:14.270Z,959.59
2016-11-03T11:30:14.154Z,959.56
2016-11-03T11:31:14.565Z,959.54
2016-11-03T11:32:14.671Z,959.52
2016-11-03T11:33:11.361Z,959.48
2016-11-03T11:34:13.872Z,959.50
2016-11-03T11:35:14.081Z,959.51
2016-11-03T11:36:12.924Z,959.47
2016-11-03T11:37:14.478Z,959.49
2016-11-03T11:38:15.027Z,959.46
2016-11-03T11:39:12.766Z,959.48
2016-11-03T11:40:17.604Z,959.45
2016-11-03T11:41:15.064Z,959.44
2016-11-03T11:42:15.137Z,959.43
2016-11-03T11:43:14.639Z,959.42
2016-11-03T11:44:14.822Z,959.38
2016-11-03T11:45:14.541Z,959.40
2016-11-03T11:46:14.618Z,959.36
2016-11-03T11:47:14.051Z,959.39
2016-11-03T11:48:13.856Z,959.36
2016-11-03T11:49:14.606Z,959.37
2016-11-03T11:50:14.736Z,959.33
2016-11-03T11:51:14.155Z,959.34
2016-11-03T11:52:15.214Z,959.36
2016-11-03T11:53:13.695Z,959.37
2016-11-03T11:54:15.283Z,959.37
2016-11-03T11:55:19.479Z,959.36
2016-11-03T11:56:14.167Z,959.37
2016-11-03T11:57:13.400Z,959.36
2016-11-03T11:58:15.021Z,959.35
2016-11-03T11:59:13.300Z,959.39
2016-11-03T12:00:14.484Z,959.39
2016-11-03T12:01:15.699Z,959.37
2016-11-03T12:02:15.490Z,959.35
2016-11-03T12:03:15.798Z,959.37
2016-11-03T12:04:13.341Z,959.33
2016-11-03T12:05:13.401Z,959.40
2016-11-03T12:06:13.328Z,959.34
2016-11-03T12:07:19.349Z,959.32
2016-11-03T12:08:14.593Z,959.32
2016-11-03T12:09:14.152Z,959.31
2016-11-03T12:10:12.252Z,959.30
2016-11-03T12:11:13.364Z,959.30
2016-11-03T12:12:16.612Z,959.26
2016-11-03T12:13:14.565Z,959.26
2016-11-03T12:14:14.126Z,959.27
2016-11-03T12:15:15.281Z,959.27
2016-11-03T12:16:14.682Z,959.28
2016-11-03T12:17:14.470Z,959.27
2016-11-03T12:18:13.826Z,959.25
2016-11-03T12:19:14.165Z,959.31
2016-11-03T12:20:13.821Z,959.24
2016-11-03T12:21:19.501Z,959.21
2016-11-03T12:22:13.596Z,959.23
2016-11-03T12:23:11.506Z,959.20
2016-11-03T12:24:12.906Z,959.18
2016-11-03T12:25:14.660Z,959.15
2016-11-03T12:26:13.702Z,959.13
2016-11-03T12:27:13.199Z,959.17
2016-11-03T12:28:13.471Z,959.14
2016-11-03T12:29:19.785Z,959.11
2016-11-03T12:30:14.231Z,959.07
2016-11-03T12:31:14.011Z,959.06
2016-11-03T12:32:12.409Z,959.05
2016-11-03T12:33:12.996Z,959.04
2016-11-03T12:34:12.764Z,959.07
2016-11-03T12:35:12.274Z,959.06
2016-11-03T12:36:14.220Z,959.04
2016-11-03T12:37:18.807Z,959.02
2016-11-03T12:38:18.554Z,959.02
2016-11-03T12:39:16.200Z,959.01
2016-11-03T12:40:13.345Z,959.02
2016-11-03T12:41:12.785Z,959.06
2016-11-03T12:42:13.100Z,959.02
2016-11-03T12:43:11.811Z,959.01
2016-11-03T12:44:13.847Z,959.05
2016-11-03T12:45:13.057Z,959.06
2016-11-03T12:46:11.608Z,959.07
2016-11-03T12:47:13.470Z,959.03
2016-11-03T12:48:12.829Z,959.05
2016-11-03T12:49:13.490Z,959.01
2016-11-03T12:50:14.355Z,959.04
2016-11-03T12:51:13.696Z,958.96
2016-11-03T12:52:14.137Z,958.98
2016-11-03T12:53:14.450Z,958.92
2016-11-03T12:54:11.548Z,958.92
2016-11-03T12:55:14.454Z,958.89
2016-11-03T12:56:12.943Z,958.88
2016-11-03T12:57:14.802Z,958.91
2016-11-03T12:58:12.896Z,958.91
2016-11-03T12:59:14.782Z,958.85
2016-11-03T13:00:12.943Z,958.89
2016-11-03T13:01:13.022Z,958.88
2016-11-03T13:02:14.684Z,958.88
2016-11-03T13:03:13.179Z,958.86
2016-11-03T13:04:13.992Z,958.88
2016-11-03T13:05:17.964Z,958.84
2016-11-03T13:06:12.683Z,958.80
2016-11-03T13:07:14.930Z,958.81
2016-11-03T13:08:12.225Z,958.81
2016-11-03T13:09:18.318Z,958.82
2016-11-03T13:10:12.784Z,958.80
2016-11-03T13:11:13.054Z,958.77
2016-11-03T13:12:12.778Z,958.79
2016-11-03T13:13:12.930Z,958.73
2016-11-03T13:14:12.965Z,958.79
2016-11-03T13:15:12.808Z,958.74
2016-11-03T13:16:14.970Z,958.77
2016-11-03T13:17:10.618Z,958.76
2016-11-03T13:18:18.780Z,958.77
2016-11-03T13:19:14.087Z,958.80
2016-11-03T13:20:12.564Z,958.73
2016-11-03T13:21:13.120Z,958.74
2016-11-03T13:22:13.555Z,958.74
2016-11-03T13:23:11.816Z,958.71
2016-11-03T13:24:18.998Z,958.74
2016-11-03T13:25:12.511Z,958.76
2016-11-03T13:26:14.307Z,958.75
2016-11-03T13:27:13.181Z,958.75
2016-11-03T13:28:14.742Z,958.74
2016-11-03T13:29:14.669Z,958.78
2016-11-03T13:30:13.822Z,958.75
2016-11-03T13:31:12.774Z,958.75
2016-11-03T13:32:15.038Z,958.74
2016-11-03T13:33:12.977Z,958.76
2016-11-03T13:34:13.406Z,958.74
2016-11-03T13:35:12.804Z,958.76
2016-11-03T13:36:12.265Z,958.77
2016-11-03T13:37:13.685Z,958.80
2016-11-03T13:38:17.059Z,958.78
2016-11-03T13:39:14.663Z,958.80
2016-11-03T13:40:13.973Z,958.76
2016-11-03T13:41:19.370Z,958.79
2016-11-03T13:42:14.585Z,958.74
2016-11-03T13:43:11.463Z,958.75
2016-11-03T13:44:12.615Z,958.76
2016-11-03T13:45:12.404Z,958.74
2016-11-03T13:46:13.668Z,958.79
2016-11-03T13:47:13.163Z,958.76
2016-11-03T13:48:20.201Z,958.76
2016-11-03T13:49:13.614Z,958.77
2016-11-03T13:50:13.530Z,958.77
2016-11-03T13:51:18.479Z,958.77
2016-11-03T13:52:13.046Z,958.74
2016-11-03T13:53:19.050Z,958.75
2016-11-03T13:54:14.932Z,958.71
2016-11-03T13:55:13.599Z,958.75
2016-11-03T13:56:14.611Z,958.74
2016-11-03T13:57:14.114Z,958.73
2016-11-03T13:58:12.529Z,958.76
2016-11-03T13:59:11.914Z,958.73
2016-11-03T14:00:12.788Z,958.77
2016-11-03T14:01:13.369Z,958.76
2016-11-03T14:02:14.222Z,958.74
2016-11-03T14:03:18.638Z,958.78
2016-11-03T14:04:13.652Z,958.74
2016-11-03T14:05:13.611Z,958.77
2016-11-03T14:06:13.442Z,958.77
2016-11-03T14:07:14.393Z,958.77
2016-11-03T14:08:15.095Z,958.76
2016-11-03T14:09:12.817Z,958.77
2016-11-03T14:10:13.015Z,958.73
2016-11-03T14:11:12.876Z,958.74
2016-11-03T14:12:13.079Z,958.75
2016-11-03T14:13:13.333Z,958.73
2016-11-03T14:14:14.046Z,958.74
2016-11-03T14:15:13.276Z,958.78
2016-11-03T14:16:12.715Z,958.74
2016-11-03T14:17:13.408Z,958.74
2016-11-03T14:18:14.672Z,958.79
2016-11-03T14:19:13.156Z,958.77
2016-11-03T14:20:13.738Z,958.77
2016-11-03T14:21:12.221Z,958.75
2016-11-03T14:22:15.817Z,958.75
2016-11-03T14:23:13.362Z,958.75
2016-11-03T14:24:16.175Z,958.75
2016-11-03T14:25:12.715Z,958.77
2016-11-03T14:26:14.508Z,958.77
2016-11-03T14:27:13.717Z,958.76
2016-11-03T14:28:12.287Z,958.75
2016-11-03T14:29:16.987Z,958.79
2016-11-03T14:30:13.785Z,958.80
2016-11-03T14:31:13.162Z,958.81
2016-11-03T14:32:12.434Z,958.77
2016-11-03T14:33:13.313Z,958.78
2016-11-03T14:34:13.425Z,958.79
2016-11-03T14:35:13.125Z,958.84
2016-11-03T14:36:12.912Z,958.81
2016-11-03T14:37:12.329Z,958.83
2016-11-03T14:38:13.369Z,958.84
2016-11-03T14:39:12.839Z,958.89
2016-11-03T14:40:14.315Z,958.88
2016-11-03T14:41:13.123Z,958.79
2016-11-03T14:42:13.777Z,958.82
2016-11-03T14:43:13.317Z,958.83
2016-11-03T14:44:14.928Z,958.80
2016-11-03T14:45:12.568Z,958.80
2016-11-03T14:46:18.633Z,958.87
2016-11-03T14:47:15.685Z,958.85
2016-11-03T14:48:22.280Z,958.82
2016-11-03T14:49:15.321Z,958.87
2016-11-03T14:50:15.139Z,958.83
2016-11-03T14:51:12.433Z,958.78
2016-11-03T14:52:13.942Z,958.80
2016-11-03T14:53:10.700Z,958.80
2016-11-03T14:54:12.655Z,958.80
2016-11-03T14:55:14.229Z,958.79
2016-11-03T14:56:13.110Z,958.79
2016-11-03T14:57:18.684Z,958.81
2016-11-03T14:58:13.580Z,958.81
2016-11-03T14:59:13.092Z,958.82
2016-11-03T15:00:13.782Z,958.86
2016-11-03T15:01:14.608Z,958.88
2016-11-03T15:02:13.216Z,958.90
2016-11-03T15:03:20.143Z,958.87
2016-11-03T15:04:12.523Z,958.89
2016-11-03T15:05:13.923Z,958.94
2016-11-03T15:06:11.742Z,958.93
2016-11-03T15:07:14.165Z,958.92
2016-11-03T15:08:13.103Z,958.90
2016-11-03T15:09:12.452Z,958.95
2016-11-03T15:10:13.976Z,958.93
2016-11-03T15:11:12.520Z,958.97
2016-11-03T15:12:13.556Z,958.96
2016-11-03T15:13:14.341Z,959.01
2016-11-03T15:14:13.045Z,958.99
2016-11-03T15:15:12.559Z,958.99
2016-11-03T15:16:12.913Z,959.00
2016-11-03T15:17:12.827Z,959.04
2016-11-03T15:18:12.748Z,959.04
2016-11-03T15:19:14.561Z,959.02
2016-11-03T15:20:13.649Z,959.03
2016-11-03T15:21:13.135Z,959.03
2016-11-03T15:22:13.224Z,959.02
2016-11-03T15:23:14.980Z,959.03
2016-11-03T15:24:13.856Z,959.02
2016-11-03T15:25:12.849Z,959.00
2016-11-03T15:26:13.549Z,958.97
2016-11-03T15:27:14.225Z,958.98
2016-11-03T15:28:12.728Z,958.96
2016-11-03T15:29:13.140Z,958.97
2016-11-03T15:30:11.865Z,958.96
2016-11-03T15:31:12.188Z,959.00
2016-11-03T15:32:12.588Z,958.98
2016-11-03T15:33:13.795Z,958.98
2016-11-03T15:34:12.605Z,958.96
2016-11-03T15:35:18.383Z,958.97
2016-11-03T15:36:13.054Z,958.96
2016-11-03T15:37:12.336Z,958.96
2016-11-03T15:38:12.756Z,958.95
2016-11-03T15:39:12.864Z,958.95
2016-11-03T15:40:14.586Z,958.97
2016-11-03T15:41:13.133Z,958.91
2016-11-03T15:42:19.750Z,958.95
2016-11-03T15:43:12.292Z,958.92
2016-11-03T15:44:15.136Z,958.92
2016-11-03T15:45:11.628Z,958.91
2016-11-03T15:46:14.633Z,958.91
2016-11-03T15:47:13.423Z,958.88
2016-11-03T15:48:13.098Z,958.86
2016-11-03T15:49:12.605Z,958.86
2016-11-03T15:50:13.227Z,958.81
2016-11-03T15:51:20.725Z,958.82
2016-11-03T15:52:13.237Z,958.77
2016-11-03T15:53:13.678Z,958.78
2016-11-03T15:54:13.774Z,958.76
2016-11-03T15:55:12.274Z,958.73
2016-11-03T15:56:11.237Z,958.75
2016-11-03T15:57:12.541Z,958.75
2016-11-03T15:58:13.367Z,958.70
2016-11-03T15:59:15.176Z,958.70
2016-11-03T16:00:13.238Z,958.65
2016-11-03T16:01:15.161Z,958.71
2016-11-03T16:02:12.518Z,958.67
2016-11-03T16:03:13.979Z,958.74
2016-11-03T16:04:12.462Z,958.72
2016-11-03T16:05:13.097Z,958.70
2016-11-03T16:06:13.819Z,958.72
2016-11-03T16:07:13.226Z,958.76
2016-11-03T16:08:13.640Z,958.71
2016-11-03T16:09:13.706Z,958.73
2016-11-03T16:10:14.585Z,958.73
2016-11-03T16:11:13.539Z,958.62
2016-11-03T16:12:14.155Z,958.65
2016-11-03T16:13:13.820Z,958.68
2016-11-03T16:14:12.145Z,958.62
2016-11-03T16:15:12.524Z,958.63
2016-11-03T16:16:13.522Z,958.72
2016-11-03T16:17:13.244Z,958.73
2016-11-03T16:18:12.476Z,958.71
2016-11-03T16:19:12.669Z,958.72
2016-11-03T16:20:19.038Z,958.73
2016-11-03T16:21:12.438Z,958.75
2016-11-03T16:22:13.382Z,958.75
2016-11-03T16:23:13.296Z,958.75
2016-11-03T16:24:12.717Z,958.72
2016-11-03T16:25:13.632Z,958.77
2016-11-03T16:26:12.944Z,958.77
2016-11-03T16:27:12.213Z,958.79
2016-11-03T16:28:20.639Z,958.74
2016-11-03T16:29:12.829Z,958.77
2016-11-03T16:30:13.330Z,958.78
2016-11-03T16:31:12.864Z,958.75
2016-11-03T16:32:12.961Z,958.77
2016-11-03T16:33:12.310Z,958.78
2016-11-03T16:34:12.721Z,958.78
2016-11-03T16:35:13.046Z,958.77
2016-11-03T16:36:13.215Z,958.75
2016-11-03T16:37:14.054Z,958.72
2016-11-03T16:38:12.833Z,958.72
2016-11-03T16:39:12.177Z,958.73
2016-11-03T16:40:13.050Z,958.69
2016-11-03T16:41:13.019Z,958.72
2016-11-03T16:42:12.168Z,958.75
2016-11-03T16:43:13.113Z,958.69
2016-11-03T16:44:14.150Z,958.67
2016-11-03T16:45:13.231Z,958.73
2016-11-03T16:46:12.750Z,958.72
2016-11-03T16:47:13.674Z,958.69
2016-11-03T16:48:13.163Z,958.73
2016-11-03T16:49:12.469Z,958.71
2016-11-03T16:50:12.800Z,958.74
2016-11-03T16:51:13.317Z,958.76
2016-11-03T16:52:14.504Z,958.77
2016-11-03T16:53:12.953Z,958.75
2016-11-03T16:54:11.699Z,958.73
2016-11-03T16:55:14.062Z,958.72
2016-11-03T16:56:12.987Z,958.71
2016-11-03T16:57:12.867Z,958.72
2016-11-03T16:58:13.333Z,958.71
2016-11-03T16:59:12.725Z,958.72
2016-11-03T17:00:12.952Z,958.73
2016-11-03T17:01:13.717Z,958.73
2016-11-03T17:02:12.931Z,958.72
2016-11-03T17:03:12.500Z,958.71
2016-11-03T17:04:13.366Z,958.71
2016-11-03T17:05:13.241Z,958.72
2016-11-03T17:06:13.030Z,958.77
2016-11-03T17:07:12.420Z,958.75
2016-11-03T17:08:12.048Z,958.77
2016-11-03T17:09:13.294Z,958.74
2016-11-03T17:10:13.110Z,958.76
2016-11-03T17:11:13.739Z,958.72
2016-11-03T17:12:12.580Z,958.75
2016-11-03T17:13:13.165Z,958.75
2016-11-03T17:14:13.623Z,958.71
2016-11-03T17:15:15.320Z,958.69
2016-11-03T17:16:14.513Z,958.71
2016-11-03T17:17:13.456Z,958.72
2016-11-03T17:18:13.629Z,958.74
2016-11-03T17:19:13.411Z,958.79
2016-11-03T17:20:14.269Z,958.81
2016-11-03T17:21:13.567Z,958.75
2016-11-03T17:22:12.823Z,958.77
2016-11-03T17:23:12.620Z,958.75
2016-11-03T17:24:13.656Z,958.73
2016-11-03T17:25:13.216Z,958.76
2016-11-03T17:26:11.843Z,958.70
2016-11-03T17:27:12.604Z,958.76
2016-11-03T17:28:12.294Z,958.76
2016-11-03T17:29:12.865Z,958.75
2016-11-03T17:30:13.873Z,958.75
2016-11-03T17:31:13.191Z,958.75
2016-11-03T17:32:12.517Z,958.73
2016-11-03T17:33:12.780Z,958.71
2016-11-03T17:34:11.288Z,958.71
2016-11-03T17:35:13.943Z,958.77
2016-11-03T17:36:13.551Z,958.82
2016-11-03T17:37:13.529Z,958.77
2016-11-03T17:38:13.220Z,958.82
2016-11-03T17:39:12.666Z,958.81
2016-11-03T17:40:13.163Z,958.82
2016-11-03T17:41:13.543Z,958.76
2016-11-03T17:42:13.818Z,958.82
2016-11-03T17:43:13.570Z,958.86
2016-11-03T17:44:11.003Z,958.82
2016-11-03T17:45:13.059Z,958.85
2016-11-03T17:46:18.813Z,958.84
2016-11-03T17:47:12.807Z,958.84
2016-11-03T17:48:13.569Z,958.84
2016-11-03T17:49:13.252Z,958.88
2016-11-03T17:50:13.032Z,958.87
2016-11-03T17:51:19.743Z,958.85
2016-11-03T17:52:13.502Z,958.84
2016-11-03T17:53:13.295Z,958.85
2016-11-03T17:54:12.878Z,958.88
2016-11-03T17:55:12.401Z,958.83
2016-11-03T17:56:13.672Z,958.80
2016-11-03T17:57:13.175Z,958.84
2016-11-03T17:58:18.355Z,958.85
2016-11-03T17:59:13.797Z,958.90
2016-11-03T18:00:19.077Z,958.92
2016-11-03T18:01:13.522Z,958.92
2016-11-03T18:02:13.035Z,958.93
2016-11-03T18:03:13.777Z,958.88
2016-11-03T18:04:18.764Z,958.95
2016-11-03T18:05:13.629Z,958.87
2016-11-03T18:06:13.540Z,958.92
2016-11-03T18:07:10.811Z,958.93
2016-11-03T18:08:12.348Z,958.90
2016-11-03T18:09:14.987Z,958.89
2016-11-03T18:10:15.921Z,958.92
2016-11-03T18:11:13.193Z,958.91
2016-11-03T18:12:12.680Z,958.91
2016-11-03T18:13:13.016Z,958.88
2016-11-03T18:14:15.077Z,958.89
2016-11-03T18:15:13.339Z,958.89
2016-11-03T18:16:13.199Z,958.90
2016-11-03T18:17:13.269Z,958.87
2016-11-03T18:18:12.783Z,958.89
2016-11-03T18:19:12.296Z,958.89
2016-11-03T18:20:12.083Z,958.91
2016-11-03T18:21:13.127Z,958.90
2016-11-03T18:22:13.325Z,958.85
2016-11-03T18:23:11.958Z,958.85
2016-11-03T18:24:11.912Z,958.84
2016-11-03T18:25:12.521Z,958.87
2016-11-03T18:26:12.975Z,958.85
2016-11-03T18:27:14.091Z,958.87
2016-11-03T18:28:12.648Z,958.89
2016-11-03T18:29:13.698Z,958.88
2016-11-03T18:30:14.351Z,958.86
2016-11-03T18:31:12.639Z,958.84
2016-11-03T18:32:14.667Z,958.86
2016-11-03T18:33:12.924Z,958.86
2016-11-03T18:34:12.905Z,958.91
2016-11-03T18:35:12.362Z,958.87
2016-11-03T18:36:13.425Z,958.89
2016-11-03T18:37:12.957Z,958.93
2016-11-03T18:38:12.389Z,958.90
2016-11-03T18:39:12.543Z,958.88
2016-11-03T18:40:12.344Z,958.90
2016-11-03T18:41:13.532Z,958.90
2016-11-03T18:42:14.449Z,958.88
2016-11-03T18:43:12.957Z,958.85
2016-11-03T18:44:12.944Z,958.86
2016-11-03T18:45:12.344Z,958.91
2016-11-03T18:46:13.444Z,958.88
2016-11-03T18:47:12.893Z,958.91
2016-11-03T18:48:13.091Z,958.96
2016-11-03T18:49:16.186Z,958.95
2016-11-03T18:50:12.778Z,958.96
2016-11-03T18:51:12.886Z,958.94
2016-11-03T18:52:12.242Z,958.89
2016-11-03T18:53:13.061Z,958.92
2016-11-03T18:54:14.121Z,958.92
2016-11-03T18:55:13.024Z,958.92
2016-11-03T18:56:13.736Z,958.91
2016-11-03T18:57:14.496Z,958.89
2016-11-03T18:58:14.582Z,958.87
2016-11-03T18:59:13.988Z,958.92
2016-11-03T19:00:12.361Z,958.88
2016-11-03T19:01:13.379Z,958.90
2016-11-03T19:02:13.751Z,958.87
2016-11-03T19:03:12.592Z,958.85
2016-11-03T19:04:13.541Z,958.89
2016-11-03T19:05:13.368Z,958.86
2016-11-03T19:06:15.366Z,958.88
2016-11-03T19:07:13.372Z,958.86
2016-11-03T19:08:12.843Z,958.89
2016-11-03T19:09:12.821Z,958.89
2016-11-03T19:10:12.352Z,958.86
2016-11-03T19:11:13.388Z,958.87
2016-11-03T19:12:13.391Z,958.85
2016-11-03T19:13:12.941Z,958.87
2016-11-03T19:14:13.041Z,958.84
2016-11-03T19:15:12.330Z,958.86
2016-11-03T19:16:12.626Z,958.88
2016-11-03T19:17:12.985Z,958.83
2016-11-03T19:18:12.861Z,958.83
2016-11-03T19:19:12.292Z,958.83
2016-11-03T19:20:11.956Z,958.79
2016-11-03T19:21:13.120Z,958.82
2016-11-03T19:22:12.513Z,958.80
2016-11-03T19:23:13.582Z,958.78
2016-11-03T19:24:13.602Z,958.78
2016-11-03T19:25:13.013Z,958.76
2016-11-03T19:26:13.145Z,958.78
2016-11-03T19:27:12.403Z,958.76
2016-11-03T19:28:12.736Z,958.76
2016-11-03T19:29:13.094Z,958.79
2016-11-03T19:30:12.524Z,958.78
2016-11-03T19:31:13.476Z,958.79
2016-11-03T19:32:13.877Z,958.80
2016-11-03T19:33:12.777Z,958.80
2016-11-03T19:34:12.340Z,958.82
2016-11-03T19:35:14.232Z,958.79
2016-11-03T19:36:15.149Z,958.80
2016-11-03T19:37:13.196Z,958.78
2016-11-03T19:38:12.951Z,958.80
2016-11-03T19:39:12.935Z,958.79
2016-11-03T19:40:12.439Z,958.78
2016-11-03T19:41:14.373Z,958.76
2016-11-03T19:42:17.458Z,958.79
2016-11-03T19:43:13.366Z,958.82
2016-11-03T19:44:12.760Z,958.82
2016-11-03T19:45:12.243Z,958.86
2016-11-03T19:46:12.564Z,958.86
2016-11-03T19:47:13.194Z,958.85
2016-11-03T19:48:12.445Z,958.78
2016-11-03T19:49:13.285Z,958.79
2016-11-03T19:50:13.393Z,958.78
2016-11-03T19:51:13.285Z,958.79
2016-11-03T19:52:13.920Z,958.77
2016-11-03T19:53:12.467Z,958.71
2016-11-03T19:54:18.402Z,958.72
2016-11-03T19:55:13.544Z,958.70
2016-11-03T19:56:17.310Z,958.70
2016-11-03T19:57:13.584Z,958.70
2016-11-03T19:58:12.910Z,958.71
2016-11-03T19:59:12.729Z,958.68
2016-11-03T20:00:12.770Z,958.70
2016-11-03T20:01:13.007Z,958.68
2016-11-03T20:02:12.376Z,958.66
2016-11-03T20:03:17.960Z,958.65
2016-11-03T20:04:12.360Z,958.62
2016-11-03T20:05:13.661Z,958.66
2016-11-03T20:06:13.746Z,958.69
2016-11-03T20:07:15.468Z,958.70
2016-11-03T20:08:14.418Z,958.65
2016-11-03T20:09:13.199Z,958.70
2016-11-03T20:10:12.818Z,958.66
2016-11-03T20:11:12.624Z,958.67
2016-11-03T20:12:16.537Z,958.67
2016-11-03T20:13:13.247Z,958.65
2016-11-03T20:14:12.711Z,958.66
2016-11-03T20:15:13.093Z,958.66
2016-11-03T20:16:14.629Z,958.72
2016-11-03T20:17:13.216Z,958.69
2016-11-03T20:18:12.461Z,958.65
2016-11-03T20:19:15.210Z,958.66
2016-11-03T20:20:13.231Z,958.65
2016-11-03T20:21:21.755Z,958.65
2016-11-03T20:22:12.582Z,958.65
2016-11-03T20:23:13.973Z,958.67
2016-11-03T20:24:13.041Z,958.64
2016-11-03T20:25:13.207Z,958.56
2016-11-03T20:26:12.786Z,958.69
2016-11-03T20:27:12.078Z,958.68
2016-11-03T20:28:12.383Z,958.66
2016-11-03T20:29:15.132Z,958.70
2016-11-03T20:30:12.598Z,958.69
2016-11-03T20:31:13.051Z,958.70
2016-11-03T20:32:12.479Z,958.69
2016-11-03T20:33:13.512Z,958.71
2016-11-03T20:34:12.790Z,958.66
2016-11-03T20:35:12.347Z,958.68
2016-11-03T20:36:13.650Z,958.70
2016-11-03T20:37:14.520Z,958.64
2016-11-03T20:38:13.334Z,958.61
2016-11-03T20:39:13.744Z,958.62
2016-11-03T20:40:12.117Z,958.61
2016-11-03T20:41:12.943Z,958.65
2016-11-03T20:42:17.863Z,958.64
2016-11-03T20:43:12.889Z,958.62
2016-11-03T20:44:13.439Z,958.64
2016-11-03T20:45:13.252Z,958.66
2016-11-03T20:46:13.319Z,958.61
2016-11-03T20:47:13.706Z,958.60
2016-11-03T20:48:13.577Z,958.61
2016-11-03T20:49:14.309Z,958.56
2016-11-03T20:50:13.893Z,958.57
2016-11-03T20:51:12.957Z,958.55
2016-11-03T20:52:13.169Z,958.53
2016-11-03T20:53:13.384Z,958.54
2016-11-03T20:54:13.392Z,958.56
2016-11-03T20:55:12.818Z,958.60
2016-11-03T20:56:12.214Z,958.60
2016-11-03T20:57:12.732Z,958.60
2016-11-03T20:58:13.372Z,958.60
2016-11-03T20:59:13.586Z,958.62
2016-11-03T21:00:12.962Z,958.60
2016-11-03T21:01:17.785Z,958.58
2016-11-03T21:02:12.866Z,958.58
2016-11-03T21:03:12.833Z,958.58
2016-11-03T21:04:15.277Z,958.58
2016-11-03T21:05:14.547Z,958.54
2016-11-03T21:06:12.199Z,958.57
2016-11-03T21:07:12.697Z,958.51
2016-11-03T21:08:13.593Z,958.47
2016-11-03T21:09:12.912Z,958.51
2016-11-03T21:10:13.408Z,958.49
2016-11-03T21:11:12.693Z,958.47
2016-11-03T21:12:12.904Z,958.45
2016-11-03T21:13:12.498Z,958.41
2016-11-03T21:14:13.635Z,958.39
2016-11-03T21:15:14.397Z,958.30
2016-11-03T21:16:13.411Z,958.28
2016-11-03T21:17:13.154Z,958.25
2016-11-03T21:18:12.521Z,958.26
2016-11-03T21:19:13.499Z,958.28
2016-11-03T21:20:12.852Z,958.27
2016-11-03T21:21:12.134Z,958.25
2016-11-03T21:22:11.443Z,958.25
2016-11-03T21:23:12.677Z,958.27
2016-11-03T21:24:15.942Z,958.25
2016-11-03T21:25:13.246Z,958.28
2016-11-03T21:26:13.784Z,958.28
2016-11-03T21:27:12.116Z,958.25
2016-11-03T21:28:14.097Z,958.27
2016-11-03T21:29:12.467Z,958.27
2016-11-03T21:30:14.218Z,958.28
2016-11-03T21:31:13.518Z,958.24
2016-11-03T21:32:12.416Z,958.22
2016-11-03T21:33:12.478Z,958.25
2016-11-03T21:34:13.689Z,958.26
2016-11-03T21:35:12.203Z,958.25
2016-11-03T21:36:13.115Z,958.25
2016-11-03T21:37:12.991Z,958.26
2016-11-03T21:38:13.236Z,958.24
2016-11-03T21:39:12.992Z,958.22
2016-11-03T21:40:12.847Z,958.22
2016-11-03T21:41:12.887Z,958.26
2016-11-03T21:42:14.677Z,958.27
2016-11-03T21:43:13.852Z,958.24
2016-11-03T21:44:13.412Z,958.24
2016-11-03T21:45:12.827Z,958.21
2016-11-03T21:46:12.757Z,958.19
2016-11-03T21:47:12.185Z,958.24
2016-11-03T21:48:12.750Z,958.22
2016-11-03T21:49:13.079Z,958.23
2016-11-03T21:50:12.521Z,958.23
2016-11-03T21:51:14.199Z,958.20
2016-11-03T21:52:12.976Z,958.23
2016-11-03T21:53:18.292Z,958.23
2016-11-03T21:54:12.778Z,958.26
2016-11-03T21:55:12.755Z,958.24
2016-11-03T21:56:13.026Z,958.26
2016-11-03T21:57:12.387Z,958.27
2016-11-03T21:58:14.226Z,958.29
2016-11-03T21:59:12.804Z,958.27
2016-11-03T22:00:12.261Z,958.25
2016-11-03T22:01:14.113Z,958.26
2016-11-03T22:02:13.711Z,958.28
2016-11-03T22:03:13.651Z,958.29
2016-11-03T22:04:13.957Z,958.24
2016-11-03T22:05:12.551Z,958.26
2016-11-03T22:06:13.768Z,958.26
2016-11-03T22:07:18.301Z,958.28
2016-11-03T22:08:12.754Z,958.28
2016-11-03T22:09:12.278Z,958.28
2016-11-03T22:10:11.196Z,958.26
2016-11-03T22:11:12.463Z,958.25
2016-11-03T22:12:13.075Z,958.22
2016-11-03T22:13:13.418Z,958.24
2016-11-03T22:14:13.705Z,958.24
2016-11-03T22:15:13.448Z,958.23
2016-11-03T22:16:13.038Z,958.26
2016-11-03T22:17:11.416Z,958.29
2016-11-03T22:18:11.986Z,958.26
2016-11-03T22:19:11.466Z,958.30
2016-11-03T22:20:13.786Z,958.30
2016-11-03T22:21:12.223Z,958.26
2016-11-03T22:22:12.595Z,958.24
2016-11-03T22:23:16.370Z,958.23
2016-11-03T22:24:12.815Z,958.23
2016-11-03T22:25:12.237Z,958.24
2016-11-03T22:26:13.231Z,958.25
2016-11-03T22:27:14.520Z,958.24
2016-11-03T22:28:11.439Z,958.19
2016-11-03T22:29:12.561Z,958.16
2016-11-03T22:30:13.083Z,958.15
2016-11-03T22:31:13.016Z,958.12
2016-11-03T22:32:12.548Z,958.13
2016-11-03T22:33:13.140Z,958.10
2016-11-03T22:34:12.499Z,958.09
2016-11-03T22:35:13.386Z,958.09
2016-11-03T22:36:13.553Z,958.09
2016-11-03T22:37:12.193Z,957.98
2016-11-03T22:38:12.862Z,957.95
2016-11-03T22:39:11.558Z,958.06
2016-11-03T22:40:13.345Z,957.99
2016-11-03T22:41:12.974Z,958.03
2016-11-03T22:42:18.857Z,958.00
2016-11-03T22:43:13.538Z,957.96
2016-11-03T22:44:14.006Z,958.01
2016-11-03T22:45:12.331Z,957.96
2016-11-03T22:46:13.015Z,957.93
2016-11-03T22:47:12.561Z,957.96
2016-11-03T22:48:12.642Z,957.95
2016-11-03T22:49:12.036Z,957.91
2016-11-03T22:50:13.494Z,957.89
2016-11-03T22:51:12.875Z,957.82
2016-11-03T22:52:12.819Z,957.86
2016-11-03T22:53:12.385Z,957.84
2016-11-03T22:54:14.248Z,957.87
2016-11-03T22:55:12.622Z,957.92
2016-11-03T22:56:13.971Z,957.88
2016-11-03T22:57:12.817Z,957.86
2016-11-03T22:58:12.857Z,957.84
2016-11-03T22:59:12.340Z,957.90
2016-11-03T23:00:13.620Z,957.87
2016-11-03T23:01:13.144Z,957.86
2016-11-03T23:02:13.142Z,957.88
2016-11-03T23:03:13.795Z,957.84
2016-11-03T23:04:13.029Z,957.84
2016-11-03T23:05:11.548Z,957.84
2016-11-03T23:06:12.483Z,957.84
2016-11-03T23:07:13.611Z,957.86
2016-11-03T23:08:13.455Z,957.90
2016-11-03T23:09:13.520Z,957.86
2016-11-03T23:10:13.391Z,957.89
2016-11-03T23:11:16.289Z,957.87
2016-11-03T23:12:18.399Z,957.88
2016-11-03T23:13:12.793Z,957.85
2016-11-03T23:14:13.034Z,957.91
2016-11-03T23:15:12.951Z,957.83
2016-11-03T23:16:13.219Z,957.92
2016-11-03T23:17:12.782Z,957.85
2016-11-03T23:18:12.268Z,957.86
2016-11-03T23:19:12.949Z,957.85
2016-11-03T23:20:14.511Z,957.81
2016-11-03T23:21:13.521Z,957.77
2016-11-03T23:22:14.775Z,957.75
2016-11-03T23:23:12.638Z,957.67
2016-11-03T23:24:13.193Z,957.69
2016-11-03T23:25:19.813Z,957.64
2016-11-03T23:26:12.902Z,957.62
2016-11-03T23:27:12.925Z,957.61
2016-11-03T23:28:13.640Z,957.62
2016-11-03T23:29:13.540Z,957.66
2016-11-03T23:30:13.681Z,957.61
2016-11-03T23:31:13.853Z,957.62
2016-11-03T23:32:12.684Z,957.62
2016-11-03T23:33:13.222Z,957.59
2016-11-03T23:34:12.803Z,957.61
2016-11-03T23:35:12.594Z,957.63
2016-11-03T23:36:13.041Z,957.61